sensor_id;sensor_type;location;lat;lon;timestamp;temperature;humidity
9762;DHT22;4920;49.594;11.022;2023-02-28T00:00:08;-1.20;99.90
9762;DHT22;4920;49.594;11.022;2023-02-28T00:02:37;-1.20;99.90
9762;DHT22;4920;49.594;11.022;2023-02-28T00:05:09;-1.20;99.90
9762;DHT22;4920;49.594;11.022;2023-02-28T00:08:07;-1.20;99.90
9762;DHT22;4920;49.594;11.022;2023-02-28T00:10:36;-1.20;99.90
9762;DHT22;4920;49.594;11.022;2023-02-28T00:13:06;-1.20;99.90
9762;DHT22;4920;49.594;11.022;2023-02-28T00:15:34;-1.20;99.90
9762;DHT22;4920;49.594;11.022;2023-02-28T00:18:03;-1.20;99.90
9762;DHT22;4920;49.594;11.022;2023-02-28T00:20:32;-1.20;99.90
9762;DHT22;4920;49.594;11.022;2023-02-28T00:23:01;-1.20;99.90
9762;DHT22;4920;49.594;11.022;2023-02-28T00:25:31;-1.30;99.90
9762;DHT22;4920;49.594;11.022;2023-02-28T00:28:00;-1.30;99.90
9762;DHT22;4920;49.594;11.022;2023-02-28T00:30:29;-1.20;99.90
9762;DHT22;4920;49.594;11.022;2023-02-28T00:32:58;-1.20;99.90
9762;DHT22;4920;49.594;11.022;2023-02-28T00:35:27;-1.10;99.90
9762;DHT22;4920;49.594;11.022;2023-02-28T00:37:56;-1.10;99.90
9762;DHT22;4920;49.594;11.022;2023-02-28T00:40:27;-1.10;99.90
9762;DHT22;4920;49.594;11.022;2023-02-28T00:42:57;-1.10;99.90
9762;DHT22;4920;49.594;11.022;2023-02-28T00:45:26;-1.10;99.90
9762;DHT22;4920;49.594;11.022;2023-02-28T00:47:54;-1.00;99.90
9762;DHT22;4920;49.594;11.022;2023-02-28T00:50:23;-1.00;99.90
9762;DHT22;4920;49.594;11.022;2023-02-28T00:52:52;-1.00;99.90
9762;DHT22;4920;49.594;11.022;2023-02-28T00:55:21;-1.00;99.90
9762;DHT22;4920;49.594;11.022;2023-02-28T00:57:50;-1.10;99.90
9762;DHT22;4920;49.594;11.022;2023-02-28T01:00:20;-1.20;99.90
9762;DHT22;4920;49.594;11.022;2023-02-28T01:02:50;-1.20;99.90
9762;DHT22;4920;49.594;11.022;2023-02-28T01:05:18;-1.20;99.90
9762;DHT22;4920;49.594;11.022;2023-02-28T01:07:47;-1.20;99.90
9762;DHT22;4920;49.594;11.022;2023-02-28T01:10:16;-1.20;99.90
9762;DHT22;4920;49.594;11.022;2023-02-28T01:12:44;-1.10;99.90
9762;DHT22;4920;49.594;11.022;2023-02-28T01:15:15;-1.30;99.90
9762;DHT22;4920;49.594;11.022;2023-02-28T01:17:46;-1.30;99.90
9762;DHT22;4920;49.594;11.022;2023-02-28T01:20:14;-1.30;99.90
9762;DHT22;4920;49.594;11.022;2023-02-28T01:22:43;-1.30;99.90
9762;DHT22;4920;49.594;11.022;2023-02-28T01:25:12;-1.40;99.90
9762;DHT22;4920;49.594;11.022;2023-02-28T01:27:41;-1.40;99.90
9762;DHT22;4920;49.594;11.022;2023-02-28T01:30:11;-1.40;99.90
9762;DHT22;4920;49.594;11.022;2023-02-28T01:32:40;-1.40;99.90
9762;DHT22;4920;49.594;11.022;2023-02-28T01:35:10;-1.50;99.90
9762;DHT22;4920;49.594;11.022;2023-02-28T01:37:39;-1.60;99.90
9762;DHT22;4920;49.594;11.022;2023-02-28T01:40:09;-1.60;99.90
9762;DHT22;4920;49.594;11.022;2023-02-28T01:42:37;-1.60;99.90
9762;DHT22;4920;49.594;11.022;2023-02-28T01:45:18;-1.60;99.90
9762;DHT22;4920;49.594;11.022;2023-02-28T01:47:48;-1.60;99.90
9762;DHT22;4920;49.594;11.022;2023-02-28T01:50:24;-1.60;99.90
9762;DHT22;4920;49.594;11.022;2023-02-28T01:52:55;-1.70;99.90
9762;DHT22;4920;49.594;11.022;2023-02-28T01:55:25;-1.70;99.90
9762;DHT22;4920;49.594;11.022;2023-02-28T01:58:00;-1.80;99.90
9762;DHT22;4920;49.594;11.022;2023-02-28T02:00:32;-1.80;99.90
9762;DHT22;4920;49.594;11.022;2023-02-28T02:03:06;-1.70;99.90
9762;DHT22;4920;49.594;11.022;2023-02-28T02:05:39;-1.70;99.90
9762;DHT22;4920;49.594;11.022;2023-02-28T02:08:12;-1.70;99.90
9762;DHT22;4920;49.594;11.022;2023-02-28T02:10:44;-1.70;99.90
9762;DHT22;4920;49.594;11.022;2023-02-28T02:13:29;-1.80;99.90
9762;DHT22;4920;49.594;11.022;2023-02-28T02:16:15;-1.70;99.90
9762;DHT22;4920;49.594;11.022;2023-02-28T02:18:50;-1.70;99.90
9762;DHT22;4920;49.594;11.022;2023-02-28T02:24:56;-1.80;99.90
9762;DHT22;4920;49.594;11.022;2023-02-28T02:27:38;-1.80;99.90
9762;DHT22;4920;49.594;11.022;2023-02-28T02:30:33;-1.70;99.90
9762;DHT22;4920;49.594;11.022;2023-02-28T02:33:26;-1.70;99.90
9762;DHT22;4920;49.594;11.022;2023-02-28T02:36:02;-1.70;99.90
9762;DHT22;4920;49.594;11.022;2023-02-28T02:38:38;-1.60;99.90
9762;DHT22;4920;49.594;11.022;2023-02-28T02:41:18;-1.60;99.90
9762;DHT22;4920;49.594;11.022;2023-02-28T02:43:52;-1.50;99.90
9762;DHT22;4920;49.594;11.022;2023-02-28T02:46:25;-1.60;99.90
9762;DHT22;4920;49.594;11.022;2023-02-28T02:48:56;-1.60;99.90
9762;DHT22;4920;49.594;11.022;2023-02-28T02:51:29;-1.60;99.90
9762;DHT22;4920;49.594;11.022;2023-02-28T02:54:03;-1.60;99.90
9762;DHT22;4920;49.594;11.022;2023-02-28T02:56:34;-1.60;99.90
9762;DHT22;4920;49.594;11.022;2023-02-28T02:59:06;-1.70;99.90
9762;DHT22;4920;49.594;11.022;2023-02-28T03:01:38;-1.70;99.90
9762;DHT22;4920;49.594;11.022;2023-02-28T03:04:10;-1.60;99.90
9762;DHT22;4920;49.594;11.022;2023-02-28T03:06:42;-1.50;99.90
9762;DHT22;4920;49.594;11.022;2023-02-28T03:09:10;-1.60;99.90
9762;DHT22;4920;49.594;11.022;2023-02-28T03:11:55;-1.60;99.90
9762;DHT22;4920;49.594;11.022;2023-02-28T03:14:32;-1.60;99.90
9762;DHT22;4920;49.594;11.022;2023-02-28T03:17:16;-1.60;99.90
9762;DHT22;4920;49.594;11.022;2023-02-28T03:19:54;-1.50;99.90
9762;DHT22;4920;49.594;11.022;2023-02-28T03:22:38;-1.50;99.90
9762;DHT22;4920;49.594;11.022;2023-02-28T03:25:13;-1.40;99.90
9762;DHT22;4920;49.594;11.022;2023-02-28T03:27:55;-1.40;99.90
9762;DHT22;4920;49.594;11.022;2023-02-28T03:30:29;-1.40;99.90
9762;DHT22;4920;49.594;11.022;2023-02-28T03:33:06;-1.50;99.90
9762;DHT22;4920;49.594;11.022;2023-02-28T03:35:38;-1.50;99.90
9762;DHT22;4920;49.594;11.022;2023-02-28T03:38:12;-1.50;99.90
9762;DHT22;4920;49.594;11.022;2023-02-28T03:40:46;-1.50;99.90
9762;DHT22;4920;49.594;11.022;2023-02-28T03:43:22;-1.50;99.90
9762;DHT22;4920;49.594;11.022;2023-02-28T03:45:54;-1.40;99.90
9762;DHT22;4920;49.594;11.022;2023-02-28T03:48:26;-1.40;99.90
9762;DHT22;4920;49.594;11.022;2023-02-28T03:50:58;-1.40;99.90
9762;DHT22;4920;49.594;11.022;2023-02-28T03:53:30;-1.40;99.90
9762;DHT22;4920;49.594;11.022;2023-02-28T03:56:05;-1.40;99.90
9762;DHT22;4920;49.594;11.022;2023-02-28T03:58:41;-1.50;99.90
9762;DHT22;4920;49.594;11.022;2023-02-28T04:01:15;-1.50;99.90
9762;DHT22;4920;49.594;11.022;2023-02-28T04:03:46;-1.50;99.90
9762;DHT22;4920;49.594;11.022;2023-02-28T04:06:16;-1.50;99.90
9762;DHT22;4920;49.594;11.022;2023-02-28T04:08:46;-1.50;99.90
9762;DHT22;4920;49.594;11.022;2023-02-28T04:11:20;-1.50;99.90
9762;DHT22;4920;49.594;11.022;2023-02-28T04:13:51;-1.60;99.90
9762;DHT22;4920;49.594;11.022;2023-02-28T04:16:19;-1.60;99.90
9762;DHT22;4920;49.594;11.022;2023-02-28T04:19:02;-1.50;99.90
9762;DHT22;4920;49.594;11.022;2023-02-28T04:21:34;-1.60;99.90
9762;DHT22;4920;49.594;11.022;2023-02-28T04:24:05;-1.60;99.90
9762;DHT22;4920;49.594;11.022;2023-02-28T04:26:35;-1.60;99.90
9762;DHT22;4920;49.594;11.022;2023-02-28T04:29:06;-1.50;99.90
9762;DHT22;4920;49.594;11.022;2023-02-28T04:31:35;-1.50;99.90
9762;DHT22;4920;49.594;11.022;2023-02-28T04:34:04;-1.60;99.90
9762;DHT22;4920;49.594;11.022;2023-02-28T04:36:33;-1.60;99.90
9762;DHT22;4920;49.594;11.022;2023-02-28T04:39:02;-1.50;99.90
9762;DHT22;4920;49.594;11.022;2023-02-28T04:41:31;-1.50;99.90
9762;DHT22;4920;49.594;11.022;2023-02-28T04:44:00;-1.50;99.90
9762;DHT22;4920;49.594;11.022;2023-02-28T04:46:30;-1.50;99.90
9762;DHT22;4920;49.594;11.022;2023-02-28T04:48:59;-1.50;99.90
9762;DHT22;4920;49.594;11.022;2023-02-28T04:51:28;-1.50;99.90
9762;DHT22;4920;49.594;11.022;2023-02-28T04:53:57;-1.50;99.90
9762;DHT22;4920;49.594;11.022;2023-02-28T04:56:26;-1.40;99.90
9762;DHT22;4920;49.594;11.022;2023-02-28T04:58:55;-1.50;99.90
9762;DHT22;4920;49.594;11.022;2023-02-28T05:01:25;-1.50;99.90
9762;DHT22;4920;49.594;11.022;2023-02-28T05:03:58;-1.40;99.90
9762;DHT22;4920;49.594;11.022;2023-02-28T05:06:29;-1.40;99.90
9762;DHT22;4920;49.594;11.022;2023-02-28T05:08:58;-1.40;99.90
9762;DHT22;4920;49.594;11.022;2023-02-28T05:11:30;-1.40;99.90
9762;DHT22;4920;49.594;11.022;2023-02-28T05:14:03;-1.50;99.90
9762;DHT22;4920;49.594;11.022;2023-02-28T05:16:32;-1.50;99.90
9762;DHT22;4920;49.594;11.022;2023-02-28T05:19:02;-1.40;99.90
9762;DHT22;4920;49.594;11.022;2023-02-28T05:21:33;-1.40;99.90
9762;DHT22;4920;49.594;11.022;2023-02-28T05:24:04;-1.40;99.90
9762;DHT22;4920;49.594;11.022;2023-02-28T05:26:34;-1.50;99.90
9762;DHT22;4920;49.594;11.022;2023-02-28T05:29:04;-1.50;99.90
9762;DHT22;4920;49.594;11.022;2023-02-28T05:31:34;-1.50;99.90
9762;DHT22;4920;49.594;11.022;2023-02-28T05:34:05;-1.50;99.90
9762;DHT22;4920;49.594;11.022;2023-02-28T05:36:34;-1.40;99.90
9762;DHT22;4920;49.594;11.022;2023-02-28T05:39:05;-1.40;99.90
9762;DHT22;4920;49.594;11.022;2023-02-28T05:41:34;-1.50;99.90
9762;DHT22;4920;49.594;11.022;2023-02-28T05:44:03;-1.50;99.90
9762;DHT22;4920;49.594;11.022;2023-02-28T05:46:32;-1.50;99.90
9762;DHT22;4920;49.594;11.022;2023-02-28T05:49:01;-1.50;99.90
9762;DHT22;4920;49.594;11.022;2023-02-28T05:51:31;-1.50;99.90
9762;DHT22;4920;49.594;11.022;2023-02-28T05:54:01;-1.50;99.90
9762;DHT22;4920;49.594;11.022;2023-02-28T05:56:30;-1.50;99.90
9762;DHT22;4920;49.594;11.022;2023-02-28T05:58:59;-1.50;99.90
9762;DHT22;4920;49.594;11.022;2023-02-28T06:01:33;-1.50;99.90
9762;DHT22;4920;49.594;11.022;2023-02-28T06:04:04;-1.50;99.90
9762;DHT22;4920;49.594;11.022;2023-02-28T06:06:35;-1.50;99.90
9762;DHT22;4920;49.594;11.022;2023-02-28T06:09:04;-1.50;99.90
9762;DHT22;4920;49.594;11.022;2023-02-28T06:11:33;-1.50;99.90
9762;DHT22;4920;49.594;11.022;2023-02-28T06:14:03;-1.50;99.90
9762;DHT22;4920;49.594;11.022;2023-02-28T06:16:33;-1.50;99.90
9762;DHT22;4920;49.594;11.022;2023-02-28T06:19:03;-1.50;99.90
9762;DHT22;4920;49.594;11.022;2023-02-28T06:21:32;-1.40;99.90
9762;DHT22;4920;49.594;11.022;2023-02-28T06:24:03;-1.40;99.90
9762;DHT22;4920;49.594;11.022;2023-02-28T06:26:32;-1.50;99.90
9762;DHT22;4920;49.594;11.022;2023-02-28T06:29:01;-1.50;99.90
9762;DHT22;4920;49.594;11.022;2023-02-28T06:31:30;-1.50;99.90
9762;DHT22;4920;49.594;11.022;2023-02-28T06:34:01;-1.50;99.90
9762;DHT22;4920;49.594;11.022;2023-02-28T06:36:29;-1.40;99.90
9762;DHT22;4920;49.594;11.022;2023-02-28T06:38:59;-1.50;99.90
9762;DHT22;4920;49.594;11.022;2023-02-28T06:41:29;-1.50;99.90
9762;DHT22;4920;49.594;11.022;2023-02-28T06:44:18;-1.40;99.90
9762;DHT22;4920;49.594;11.022;2023-02-28T06:46:47;-1.40;99.90
9762;DHT22;4920;49.594;11.022;2023-02-28T06:49:17;-1.40;99.90
9762;DHT22;4920;49.594;11.022;2023-02-28T06:51:45;-1.30;99.90
9762;DHT22;4920;49.594;11.022;2023-02-28T06:54:14;-1.30;99.90
9762;DHT22;4920;49.594;11.022;2023-02-28T06:56:44;-1.20;99.90
9762;DHT22;4920;49.594;11.022;2023-02-28T06:59:14;-1.20;99.90
9762;DHT22;4920;49.594;11.022;2023-02-28T07:01:42;-1.10;99.90
9762;DHT22;4920;49.594;11.022;2023-02-28T07:04:11;-1.10;99.90
9762;DHT22;4920;49.594;11.022;2023-02-28T07:06:40;-1.10;99.90
9762;DHT22;4920;49.594;11.022;2023-02-28T07:09:09;-1.00;99.90
9762;DHT22;4920;49.594;11.022;2023-02-28T07:11:38;-1.00;99.90
9762;DHT22;4920;49.594;11.022;2023-02-28T07:14:08;-0.90;99.90
9762;DHT22;4920;49.594;11.022;2023-02-28T07:16:37;-0.90;99.90
9762;DHT22;4920;49.594;11.022;2023-02-28T07:19:06;-0.80;99.90
9762;DHT22;4920;49.594;11.022;2023-02-28T07:21:35;-0.80;99.90
9762;DHT22;4920;49.594;11.022;2023-02-28T07:24:04;-0.70;99.90
9762;DHT22;4920;49.594;11.022;2023-02-28T07:26:33;-0.70;99.90
9762;DHT22;4920;49.594;11.022;2023-02-28T07:29:02;-0.60;99.90
9762;DHT22;4920;49.594;11.022;2023-02-28T07:31:33;-0.60;99.90
9762;DHT22;4920;49.594;11.022;2023-02-28T07:34:07;-0.50;99.90
9762;DHT22;4920;49.594;11.022;2023-02-28T07:36:36;-0.40;99.90
9762;DHT22;4920;49.594;11.022;2023-02-28T07:39:04;-0.30;99.90
9762;DHT22;4920;49.594;11.022;2023-02-28T07:41:33;-0.20;99.90
9762;DHT22;4920;49.594;11.022;2023-02-28T07:44:06;-0.10;99.90
9762;DHT22;4920;49.594;11.022;2023-02-28T07:46:36;0.10;99.90
9762;DHT22;4920;49.594;11.022;2023-02-28T07:49:08;0.10;99.90
9762;DHT22;4920;49.594;11.022;2023-02-28T07:51:37;0.30;99.90
9762;DHT22;4920;49.594;11.022;2023-02-28T07:54:06;0.30;99.90
9762;DHT22;4920;49.594;11.022;2023-02-28T07:56:35;0.50;99.90
9762;DHT22;4920;49.594;11.022;2023-02-28T07:59:04;0.60;99.90
9762;DHT22;4920;49.594;11.022;2023-02-28T08:01:32;0.70;99.90
9762;DHT22;4920;49.594;11.022;2023-02-28T08:04:03;0.80;99.90
9762;DHT22;4920;49.594;11.022;2023-02-28T08:07:02;0.90;99.90
9762;DHT22;4920;49.594;11.022;2023-02-28T08:09:31;1.00;99.90
9762;DHT22;4920;49.594;11.022;2023-02-28T08:12:27;1.10;99.90
9762;DHT22;4920;49.594;11.022;2023-02-28T08:14:55;1.20;99.90
9762;DHT22;4920;49.594;11.022;2023-02-28T08:20:48;1.30;99.90
9762;DHT22;4920;49.594;11.022;2023-02-28T08:23:16;1.40;99.90
9762;DHT22;4920;49.594;11.022;2023-02-28T08:25:52;1.50;99.90
9762;DHT22;4920;49.594;11.022;2023-02-28T08:31:43;1.50;99.90
9762;DHT22;4920;49.594;11.022;2023-02-28T08:34:13;1.60;99.90
9762;DHT22;4920;49.594;11.022;2023-02-28T08:36:44;1.70;99.90
9762;DHT22;4920;49.594;11.022;2023-02-28T08:39:13;1.80;99.90
9762;DHT22;4920;49.594;11.022;2023-02-28T08:41:46;1.90;99.90
9762;DHT22;4920;49.594;11.022;2023-02-28T08:48:14;2.00;99.90
9762;DHT22;4920;49.594;11.022;2023-02-28T08:50:55;2.00;99.90
9762;DHT22;4920;49.594;11.022;2023-02-28T08:53:35;2.00;99.90
9762;DHT22;4920;49.594;11.022;2023-02-28T08:56:06;2.00;99.90
9762;DHT22;4920;49.594;11.022;2023-02-28T08:58:35;2.10;99.90
9762;DHT22;4920;49.594;11.022;2023-02-28T09:01:09;2.20;99.90
9762;DHT22;4920;49.594;11.022;2023-02-28T09:03:38;2.30;99.90
9762;DHT22;4920;49.594;11.022;2023-02-28T09:06:09;2.30;99.90
9762;DHT22;4920;49.594;11.022;2023-02-28T09:08:40;2.40;99.90
9762;DHT22;4920;49.594;11.022;2023-02-28T09:11:09;2.30;99.90
9762;DHT22;4920;49.594;11.022;2023-02-28T09:13:39;2.40;99.90
9762;DHT22;4920;49.594;11.022;2023-02-28T09:16:10;2.50;99.90
9762;DHT22;4920;49.594;11.022;2023-02-28T09:18:40;2.50;99.90
9762;DHT22;4920;49.594;11.022;2023-02-28T09:21:14;2.60;99.90
9762;DHT22;4920;49.594;11.022;2023-02-28T09:23:45;2.80;99.90
9762;DHT22;4920;49.594;11.022;2023-02-28T09:26:16;2.90;99.90
9762;DHT22;4920;49.594;11.022;2023-02-28T09:28:45;3.00;99.90
9762;DHT22;4920;49.594;11.022;2023-02-28T09:31:16;3.10;99.90
9762;DHT22;4920;49.594;11.022;2023-02-28T09:33:48;3.10;99.90
9762;DHT22;4920;49.594;11.022;2023-02-28T09:36:17;3.10;99.90
9762;DHT22;4920;49.594;11.022;2023-02-28T09:38:48;2.90;99.90
9762;DHT22;4920;49.594;11.022;2023-02-28T09:41:21;3.00;99.90
9762;DHT22;4920;49.594;11.022;2023-02-28T09:43:54;2.90;99.90
9762;DHT22;4920;49.594;11.022;2023-02-28T09:46:32;3.00;99.90
9762;DHT22;4920;49.594;11.022;2023-02-28T09:49:06;2.90;99.90
9762;DHT22;4920;49.594;11.022;2023-02-28T09:51:50;2.90;99.90
9762;DHT22;4920;49.594;11.022;2023-02-28T09:54:22;3.10;99.90
9762;DHT22;4920;49.594;11.022;2023-02-28T09:56:53;3.30;99.90
9762;DHT22;4920;49.594;11.022;2023-02-28T09:59:35;3.40;99.90
9762;DHT22;4920;49.594;11.022;2023-02-28T10:02:35;3.60;99.90
9762;DHT22;4920;49.594;11.022;2023-02-28T10:05:10;3.80;99.90
9762;DHT22;4920;49.594;11.022;2023-02-28T10:07:56;3.80;99.90
9762;DHT22;4920;49.594;11.022;2023-02-28T10:10:35;3.80;99.90
9762;DHT22;4920;49.594;11.022;2023-02-28T10:13:12;4.00;99.90
9762;DHT22;4920;49.594;11.022;2023-02-28T10:15:45;4.20;99.90
9762;DHT22;4920;49.594;11.022;2023-02-28T10:18:21;4.50;99.90
9762;DHT22;4920;49.594;11.022;2023-02-28T10:20:52;4.70;99.90
9762;DHT22;4920;49.594;11.022;2023-02-28T10:23:25;4.90;99.90
9762;DHT22;4920;49.594;11.022;2023-02-28T10:25:59;5.00;99.90
9762;DHT22;4920;49.594;11.022;2023-02-28T10:28:29;5.00;99.40
9762;DHT22;4920;49.594;11.022;2023-02-28T10:31:01;5.10;99.10
9762;DHT22;4920;49.594;11.022;2023-02-28T10:33:32;5.20;98.30
9762;DHT22;4920;49.594;11.022;2023-02-28T10:36:03;5.30;98.60
9762;DHT22;4920;49.594;11.022;2023-02-28T10:38:36;5.40;97.50
9762;DHT22;4920;49.594;11.022;2023-02-28T10:41:08;5.50;97.30
9762;DHT22;4920;49.594;11.022;2023-02-28T10:43:39;5.60;97.30
9762;DHT22;4920;49.594;11.022;2023-02-28T10:46:15;5.70;96.50
9762;DHT22;4920;49.594;11.022;2023-02-28T10:49:02;5.80;96.80
9762;DHT22;4920;49.594;11.022;2023-02-28T10:51:37;5.90;95.60
9762;DHT22;4920;49.594;11.022;2023-02-28T10:54:15;5.90;95.30
9762;DHT22;4920;49.594;11.022;2023-02-28T10:56:46;5.90;94.60
9762;DHT22;4920;49.594;11.022;2023-02-28T10:59:34;5.80;94.30
9762;DHT22;4920;49.594;11.022;2023-02-28T11:02:32;5.80;95.70
9762;DHT22;4920;49.594;11.022;2023-02-28T11:05:01;5.90;94.30
9762;DHT22;4920;49.594;11.022;2023-02-28T11:07:30;6.10;93.60
9762;DHT22;4920;49.594;11.022;2023-02-28T11:10:20;6.10;92.70
9762;DHT22;4920;49.594;11.022;2023-02-28T11:12:55;6.20;92.10
9762;DHT22;4920;49.594;11.022;2023-02-28T11:15:28;6.10;92.10
9762;DHT22;4920;49.594;11.022;2023-02-28T11:18:04;6.10;91.60
9762;DHT22;4920;49.594;11.022;2023-02-28T11:20:48;5.90;91.50
9762;DHT22;4920;49.594;11.022;2023-02-28T11:23:18;5.70;91.40
9762;DHT22;4920;49.594;11.022;2023-02-28T11:25:50;5.30;92.10
9762;DHT22;4920;49.594;11.022;2023-02-28T11:28:28;5.30;92.40
9762;DHT22;4920;49.594;11.022;2023-02-28T11:31:05;5.50;93.00
9762;DHT22;4920;49.594;11.022;2023-02-28T11:33:41;5.50;92.00
9762;DHT22;4920;49.594;11.022;2023-02-28T11:36:14;5.50;92.50
9762;DHT22;4920;49.594;11.022;2023-02-28T11:38:45;5.70;92.60
9762;DHT22;4920;49.594;11.022;2023-02-28T11:41:30;5.90;92.30
9762;DHT22;4920;49.594;11.022;2023-02-28T11:44:23;6.10;92.00
9762;DHT22;4920;49.594;11.022;2023-02-28T11:46:59;6.30;91.00
9762;DHT22;4920;49.594;11.022;2023-02-28T11:49:34;6.50;90.90
9762;DHT22;4920;49.594;11.022;2023-02-28T11:52:15;6.50;90.00
9762;DHT22;4920;49.594;11.022;2023-02-28T11:55:07;6.30;90.40
9762;DHT22;4920;49.594;11.022;2023-02-28T11:57:52;6.20;90.20
9762;DHT22;4920;49.594;11.022;2023-02-28T12:00:45;6.10;90.40
9762;DHT22;4920;49.594;11.022;2023-02-28T12:03:27;6.30;91.90
9762;DHT22;4920;49.594;11.022;2023-02-28T12:06:08;6.40;91.50
9762;DHT22;4920;49.594;11.022;2023-02-28T12:08:53;6.50;91.20
9762;DHT22;4920;49.594;11.022;2023-02-28T12:11:34;6.60;90.60
9762;DHT22;4920;49.594;11.022;2023-02-28T12:17:19;6.70;90.00
9762;DHT22;4920;49.594;11.022;2023-02-28T12:19:58;6.80;88.60
9762;DHT22;4920;49.594;11.022;2023-02-28T12:22:32;6.80;89.00
9762;DHT22;4920;49.594;11.022;2023-02-28T12:25:28;6.80;88.70
9762;DHT22;4920;49.594;11.022;2023-02-28T12:28:04;6.90;87.80
9762;DHT22;4920;49.594;11.022;2023-02-28T12:30:35;6.80;87.10
9762;DHT22;4920;49.594;11.022;2023-02-28T12:33:10;6.70;88.50
9762;DHT22;4920;49.594;11.022;2023-02-28T12:35:46;6.80;90.70
9762;DHT22;4920;49.594;11.022;2023-02-28T12:38:19;7.00;89.40
9762;DHT22;4920;49.594;11.022;2023-02-28T12:40:52;7.10;88.70
9762;DHT22;4920;49.594;11.022;2023-02-28T12:43:27;7.30;88.50
9762;DHT22;4920;49.594;11.022;2023-02-28T12:46:00;7.40;88.00
9762;DHT22;4920;49.594;11.022;2023-02-28T12:48:38;7.60;88.30
9762;DHT22;4920;49.594;11.022;2023-02-28T12:51:10;7.70;87.00
9762;DHT22;4920;49.594;11.022;2023-02-28T12:53:53;7.80;87.00
9762;DHT22;4920;49.594;11.022;2023-02-28T12:56:32;7.90;85.40
9762;DHT22;4920;49.594;11.022;2023-02-28T12:59:05;8.00;83.50
9762;DHT22;4920;49.594;11.022;2023-02-28T13:02:00;7.80;83.40
9762;DHT22;4920;49.594;11.022;2023-02-28T13:04:42;7.80;83.40
9762;DHT22;4920;49.594;11.022;2023-02-28T13:07:43;7.80;83.30
9762;DHT22;4920;49.594;11.022;2023-02-28T13:10:19;7.70;83.00
9762;DHT22;4920;49.594;11.022;2023-02-28T13:12:49;7.40;83.30
9762;DHT22;4920;49.594;11.022;2023-02-28T13:15:22;7.30;83.30
9762;DHT22;4920;49.594;11.022;2023-02-28T13:17:53;7.30;83.80
9762;DHT22;4920;49.594;11.022;2023-02-28T13:20:51;7.20;83.50
9762;DHT22;4920;49.594;11.022;2023-02-28T13:24:00;7.20;83.80
9762;DHT22;4920;49.594;11.022;2023-02-28T13:29:37;7.00;83.60
9762;DHT22;4920;49.594;11.022;2023-02-28T13:35:14;6.90;84.30
9762;DHT22;4920;49.594;11.022;2023-02-28T13:37:48;7.00;83.10
9762;DHT22;4920;49.594;11.022;2023-02-28T13:40:30;6.90;83.50
9762;DHT22;4920;49.594;11.022;2023-02-28T13:43:08;6.60;82.80
9762;DHT22;4920;49.594;11.022;2023-02-28T13:45:37;6.50;83.80
9762;DHT22;4920;49.594;11.022;2023-02-28T13:48:17;6.50;84.50
9762;DHT22;4920;49.594;11.022;2023-02-28T13:50:47;6.50;84.10
9762;DHT22;4920;49.594;11.022;2023-02-28T13:53:38;6.60;84.10
9762;DHT22;4920;49.594;11.022;2023-02-28T13:56:35;6.50;83.10
9762;DHT22;4920;49.594;11.022;2023-02-28T13:59:20;6.30;84.50
9762;DHT22;4920;49.594;11.022;2023-02-28T14:02:09;6.20;84.30
9762;DHT22;4920;49.594;11.022;2023-02-28T14:07:45;6.40;85.40
9762;DHT22;4920;49.594;11.022;2023-02-28T14:10:27;6.50;84.60
9762;DHT22;4920;49.594;11.022;2023-02-28T14:13:03;6.60;85.20
9762;DHT22;4920;49.594;11.022;2023-02-28T14:18:27;7.10;85.50
9762;DHT22;4920;49.594;11.022;2023-02-28T14:21:14;7.40;83.20
9762;DHT22;4920;49.594;11.022;2023-02-28T14:27:32;7.60;81.60
9762;DHT22;4920;49.594;11.022;2023-02-28T14:30:37;7.70;81.60
9762;DHT22;4920;49.594;11.022;2023-02-28T14:33:22;7.80;81.50
9762;DHT22;4920;49.594;11.022;2023-02-28T14:36:07;7.80;83.00
9762;DHT22;4920;49.594;11.022;2023-02-28T14:38:39;8.00;81.60
9762;DHT22;4920;49.594;11.022;2023-02-28T14:41:18;7.90;83.20
9762;DHT22;4920;49.594;11.022;2023-02-28T14:43:52;8.00;83.70
9762;DHT22;4920;49.594;11.022;2023-02-28T14:46:23;8.00;84.50
9762;DHT22;4920;49.594;11.022;2023-02-28T14:48:54;8.00;81.80
9762;DHT22;4920;49.594;11.022;2023-02-28T14:51:24;8.10;82.00
9762;DHT22;4920;49.594;11.022;2023-02-28T14:53:59;8.30;81.80
9762;DHT22;4920;49.594;11.022;2023-02-28T14:56:34;8.30;79.70
9762;DHT22;4920;49.594;11.022;2023-02-28T14:59:20;7.80;80.20
9762;DHT22;4920;49.594;11.022;2023-02-28T15:02:07;7.50;81.40
9762;DHT22;4920;49.594;11.022;2023-02-28T15:04:36;7.20;82.00
9762;DHT22;4920;49.594;11.022;2023-02-28T15:07:08;6.90;82.30
9762;DHT22;4920;49.594;11.022;2023-02-28T15:09:37;6.80;83.00
9762;DHT22;4920;49.594;11.022;2023-02-28T15:12:06;6.60;83.10
9762;DHT22;4920;49.594;11.022;2023-02-28T15:14:38;6.40;83.00
9762;DHT22;4920;49.594;11.022;2023-02-28T15:17:19;6.40;84.30
9762;DHT22;4920;49.594;11.022;2023-02-28T15:19:51;6.30;85.20
9762;DHT22;4920;49.594;11.022;2023-02-28T15:22:27;6.30;84.40
9762;DHT22;4920;49.594;11.022;2023-02-28T15:24:57;6.20;84.90
9762;DHT22;4920;49.594;11.022;2023-02-28T15:27:28;6.00;85.20
9762;DHT22;4920;49.594;11.022;2023-02-28T15:30:05;5.90;85.30
9762;DHT22;4920;49.594;11.022;2023-02-28T15:32:36;5.90;85.40
9762;DHT22;4920;49.594;11.022;2023-02-28T15:35:32;5.90;86.20
9762;DHT22;4920;49.594;11.022;2023-02-28T15:38:03;5.90;86.00
9762;DHT22;4920;49.594;11.022;2023-02-28T15:40:37;5.90;86.50
9762;DHT22;4920;49.594;11.022;2023-02-28T15:43:07;5.80;87.30
9762;DHT22;4920;49.594;11.022;2023-02-28T15:45:45;5.80;86.80
9762;DHT22;4920;49.594;11.022;2023-02-28T15:48:18;5.80;86.90
9762;DHT22;4920;49.594;11.022;2023-02-28T15:50:49;5.80;87.30
9762;DHT22;4920;49.594;11.022;2023-02-28T15:53:22;5.70;87.10
9762;DHT22;4920;49.594;11.022;2023-02-28T15:55:54;5.70;87.40
9762;DHT22;4920;49.594;11.022;2023-02-28T15:58:24;5.60;87.60
9762;DHT22;4920;49.594;11.022;2023-02-28T16:01:05;5.50;88.00
9762;DHT22;4920;49.594;11.022;2023-02-28T16:03:43;5.50;88.60
9762;DHT22;4920;49.594;11.022;2023-02-28T16:06:32;5.40;88.80
9762;DHT22;4920;49.594;11.022;2023-02-28T16:09:02;5.30;88.70
9762;DHT22;4920;49.594;11.022;2023-02-28T16:11:32;5.30;89.00
9762;DHT22;4920;49.594;11.022;2023-02-28T16:14:01;5.20;89.50
9762;DHT22;4920;49.594;11.022;2023-02-28T16:16:32;5.10;89.40
9762;DHT22;4920;49.594;11.022;2023-02-28T16:19:02;5.00;90.00
9762;DHT22;4920;49.594;11.022;2023-02-28T16:21:36;4.80;90.10
9762;DHT22;4920;49.594;11.022;2023-02-28T16:28:18;4.60;90.60
9762;DHT22;4920;49.594;11.022;2023-02-28T16:30:50;4.50;91.10
9762;DHT22;4920;49.594;11.022;2023-02-28T16:33:21;4.40;91.00
9762;DHT22;4920;49.594;11.022;2023-02-28T16:35:50;4.30;91.20
9762;DHT22;4920;49.594;11.022;2023-02-28T16:38:19;4.30;91.40
9762;DHT22;4920;49.594;11.022;2023-02-28T16:40:53;4.10;91.70
9762;DHT22;4920;49.594;11.022;2023-02-28T16:43:25;4.10;91.90
9762;DHT22;4920;49.594;11.022;2023-02-28T16:45:56;4.00;92.20
9762;DHT22;4920;49.594;11.022;2023-02-28T16:48:28;4.00;92.20
9762;DHT22;4920;49.594;11.022;2023-02-28T16:50:57;4.00;92.60
9762;DHT22;4920;49.594;11.022;2023-02-28T16:53:26;3.90;92.40
9762;DHT22;4920;49.594;11.022;2023-02-28T16:55:56;3.80;92.50
9762;DHT22;4920;49.594;11.022;2023-02-28T16:58:25;3.80;92.80
9762;DHT22;4920;49.594;11.022;2023-02-28T17:00:54;3.70;93.00
9762;DHT22;4920;49.594;11.022;2023-02-28T17:03:25;3.70;93.20
9762;DHT22;4920;49.594;11.022;2023-02-28T17:06:01;3.50;93.50
9762;DHT22;4920;49.594;11.022;2023-02-28T17:08:30;3.40;93.70
9762;DHT22;4920;49.594;11.022;2023-02-28T17:10:59;3.20;94.20
9762;DHT22;4920;49.594;11.022;2023-02-28T17:13:29;3.10;94.30